sensor_id;sensor_type;location;lat;lon;timestamp;pressure;altitude;pressure_sealevel;temperature;humidity
48077;BME280;33854;57.708;12.008;2023-01-29T00:00:00;98066.69;;;3.05;100.00
48077;BME280;33854;57.708;12.008;2023-01-29T00:02:25;98020.97;;;3.08;100.00
48077;BME280;33854;57.708;12.008;2023-01-29T00:04:51;97980.28;;;3.13;100.00
48077;BME280;33854;57.708;12.008;2023-01-29T00:07:17;97945.03;;;3.14;100.00
48077;BME280;33854;57.708;12.008;2023-01-29T00:09:43;97908.53;;;3.21;100.00
48077;BME280;33854;57.708;12.008;2023-01-29T00:12:08;97864.50;;;3.24;100.00
48077;BME280;33854;57.708;12.008;2023-01-29T00:14:34;97815.34;;;3.27;100.00
48077;BME280;33854;57.708;12.008;2023-01-29T00:16:59;97793.81;;;3.28;100.00
48077;BME280;33854;57.708;12.008;2023-01-29T00:19:25;97760.28;;;3.28;100.00
48077;BME280;33854;57.708;12.008;2023-01-29T00:21:51;97738.66;;;3.31;100.00
48077;BME280;33854;57.708;12.008;2023-01-29T00:24:16;97687.94;;;3.31;100.00
48077;BME280;33854;57.708;12.008;2023-01-29T00:26:41;97651.47;;;3.37;100.00
48077;BME280;33854;57.708;12.008;2023-01-29T00:29:07;97614.75;;;3.34;100.00
48077;BME280;33854;57.708;12.008;2023-01-29T00:31:32;97576.59;;;3.39;100.00
48077;BME280;33854;57.708;12.008;2023-01-29T00:33:58;97551.22;;;3.45;100.00
48077;BME280;33854;57.708;12.008;2023-01-29T00:36:24;97518.63;;;3.44;100.00
48077;BME280;33854;57.708;12.008;2023-01-29T00:38:54;97465.25;;;3.47;100.00
48077;BME280;33854;57.708;12.008;2023-01-29T00:41:25;97444.50;;;3.48;100.00
48077;BME280;33854;57.708;12.008;2023-01-29T00:44:09;97416.75;;;3.52;100.00
48077;BME280;33854;57.708;12.008;2023-01-29T00:46:53;97403.75;;;3.53;100.00
48077;BME280;33854;57.708;12.008;2023-01-29T00:49:19;97388.53;;;3.50;100.00
48077;BME280;33854;57.708;12.008;2023-01-29T00:51:44;97357.34;;;3.53;100.00
48077;BME280;33854;57.708;12.008;2023-01-29T00:54:29;97300.53;;;3.55;100.00
48077;BME280;33854;57.708;12.008;2023-01-29T00:56:55;97282.47;;;3.55;100.00
48077;BME280;33854;57.708;12.008;2023-01-29T00:59:20;97235.84;;;3.58;100.00
48077;BME280;33854;57.708;12.008;2023-01-29T01:01:46;97212.53;;;3.59;100.00
48077;BME280;33854;57.708;12.008;2023-01-29T01:04:30;97189.31;;;3.59;100.00
48077;BME280;33854;57.708;12.008;2023-01-29T01:06:55;97172.31;;;3.57;100.00
48077;BME280;33854;57.708;12.008;2023-01-29T01:09:20;97162.38;;;3.63;100.00
48077;BME280;33854;57.708;12.008;2023-01-29T01:12:05;97138.25;;;3.64;100.00
48077;BME280;33854;57.708;12.008;2023-01-29T01:14:30;97114.91;;;3.66;100.00
48077;BME280;33854;57.708;12.008;2023-01-29T01:16:59;97085.41;;;3.70;100.00
48077;BME280;33854;57.708;12.008;2023-01-29T01:19:24;97068.16;;;3.70;100.00
48077;BME280;33854;57.708;12.008;2023-01-29T01:21:49;97063.00;;;3.70;100.00
48077;BME280;33854;57.708;12.008;2023-01-29T01:24:15;97060.19;;;3.73;100.00
48077;BME280;33854;57.708;12.008;2023-01-29T01:26:40;97040.59;;;3.71;100.00
48077;BME280;33854;57.708;12.008;2023-01-29T01:29:06;97004.28;;;3.63;100.00
48077;BME280;33854;57.708;12.008;2023-01-29T01:31:31;97004.50;;;3.71;100.00
48077;BME280;33854;57.708;12.008;2023-01-29T01:33:57;96989.28;;;3.68;100.00
48077;BME280;33854;57.708;12.008;2023-01-29T01:36:22;96989.03;;;3.71;100.00
48077;BME280;33854;57.708;12.008;2023-01-29T01:38:48;96988.94;;;3.72;100.00
48077;BME280;33854;57.708;12.008;2023-01-29T01:41:18;96976.88;;;3.73;100.00
48077;BME280;33854;57.708;12.008;2023-01-29T01:43:49;96972.50;;;3.73;100.00
48077;BME280;33854;57.708;12.008;2023-01-29T01:46:16;96971.72;;;3.73;100.00
48077;BME280;33854;57.708;12.008;2023-01-29T01:48:43;96969.81;;;3.75;100.00
48077;BME280;33854;57.708;12.008;2023-01-29T01:51:09;96970.75;;;3.74;100.00
48077;BME280;33854;57.708;12.008;2023-01-29T01:53:41;96955.03;;;3.77;100.00
48077;BME280;33854;57.708;12.008;2023-01-29T01:56:13;96932.78;;;3.76;100.00
48077;BME280;33854;57.708;12.008;2023-01-29T01:58:50;96914.72;;;3.76;100.00
48077;BME280;33854;57.708;12.008;2023-01-29T02:01:19;96911.78;;;3.80;100.00
48077;BME280;33854;57.708;12.008;2023-01-29T02:04:05;96884.25;;;3.81;100.00
48077;BME280;33854;57.708;12.008;2023-01-29T02:06:51;96853.63;;;3.76;100.00
48077;BME280;33854;57.708;12.008;2023-01-29T02:09:43;96859.97;;;3.83;100.00
48077;BME280;33854;57.708;12.008;2023-01-29T02:12:13;96855.72;;;3.82;100.00
48077;BME280;33854;57.708;12.008;2023-01-29T02:14:41;96841.53;;;3.88;100.00
48077;BME280;33854;57.708;12.008;2023-01-29T02:17:10;96846.34;;;3.92;100.00
48077;BME280;33854;57.708;12.008;2023-01-29T02:36:44;96798.28;;;4.12;100.00
48077;BME280;33854;57.708;12.008;2023-01-29T02:39:30;96805.88;;;4.14;100.00
48077;BME280;33854;57.708;12.008;2023-01-29T02:42:27;96793.44;;;4.19;100.00
48077;BME280;33854;57.708;12.008;2023-01-29T02:45:12;96769.94;;;4.22;100.00
48077;BME280;33854;57.708;12.008;2023-01-29T02:48:12;96762.06;;;4.23;100.00
48077;BME280;33854;57.708;12.008;2023-01-29T02:50:40;96760.88;;;4.27;100.00
48077;BME280;33854;57.708;12.008;2023-01-29T02:55:41;96761.56;;;4.29;100.00
48077;BME280;33854;57.708;12.008;2023-01-29T02:58:16;96769.06;;;4.32;100.00
48077;BME280;33854;57.708;12.008;2023-01-29T03:00:46;96752.75;;;4.32;100.00
48077;BME280;33854;57.708;12.008;2023-01-29T03:03:19;96737.81;;;4.35;100.00
48077;BME280;33854;57.708;12.008;2023-01-29T03:05:59;96739.44;;;4.36;100.00
48077;BME280;33854;57.708;12.008;2023-01-29T03:08:34;96720.44;;;4.37;100.00
48077;BME280;33854;57.708;12.008;2023-01-29T03:11:09;96732.41;;;4.38;100.00
48077;BME280;33854;57.708;12.008;2023-01-29T03:13:45;96729.44;;;4.43;100.00
48077;BME280;33854;57.708;12.008;2023-01-29T03:16:23;96725.09;;;4.43;100.00
48077;BME280;33854;57.708;12.008;2023-01-29T03:18:55;96726.16;;;4.41;100.00
48077;BME280;33854;57.708;12.008;2023-01-29T03:21:51;96731.44;;;4.39;100.00
48077;BME280;33854;57.708;12.008;2023-01-29T03:24:51;96718.28;;;4.42;100.00
48077;BME280;33854;57.708;12.008;2023-01-29T03:27:44;96709.53;;;4.34;100.00
48077;BME280;33854;57.708;12.008;2023-01-29T03:30:30;96717.03;;;4.37;100.00
48077;BME280;33854;57.708;12.008;2023-01-29T03:33:17;96731.97;;;4.33;100.00
48077;BME280;33854;57.708;12.008;2023-01-29T03:35:58;96736.75;;;4.38;100.00
48077;BME280;33854;57.708;12.008;2023-01-29T03:38:27;96725.84;;;4.34;100.00
48077;BME280;33854;57.708;12.008;2023-01-29T03:41:46;96720.44;;;4.37;100.00
48077;BME280;33854;57.708;12.008;2023-01-29T03:46:43;96722.09;;;4.38;100.00
48077;BME280;33854;57.708;12.008;2023-01-29T03:49:18;96719.63;;;4.37;100.00
48077;BME280;33854;57.708;12.008;2023-01-29T03:52:34;96714.44;;;4.37;100.00
48077;BME280;33854;57.708;12.008;2023-01-29T03:57:32;96712.31;;;4.42;100.00
48077;BME280;33854;57.708;12.008;2023-01-29T04:05:17;96704.84;;;4.48;100.00
48077;BME280;33854;57.708;12.008;2023-01-29T04:07:44;96703.91;;;4.49;100.00
48077;BME280;33854;57.708;12.008;2023-01-29T04:10:18;96696.47;;;4.56;100.00
48077;BME280;33854;57.708;12.008;2023-01-29T04:12:50;96691.31;;;4.56;100.00
48077;BME280;33854;57.708;12.008;2023-01-29T04:15:17;96674.59;;;4.50;100.00
48077;BME280;33854;57.708;12.008;2023-01-29T04:17:49;96688.59;;;4.57;100.00
48077;BME280;33854;57.708;12.008;2023-01-29T04:20:15;96681.66;;;4.58;100.00
48077;BME280;33854;57.708;12.008;2023-01-29T04:22:46;96682.75;;;4.55;100.00
48077;BME280;33854;57.708;12.008;2023-01-29T04:25:16;96686.25;;;4.54;100.00
48077;BME280;33854;57.708;12.008;2023-01-29T04:27:44;96689.78;;;4.53;100.00
48077;BME280;33854;57.708;12.008;2023-01-29T04:49:41;96706.19;;;4.43;100.00
48077;BME280;33854;57.708;12.008;2023-01-29T04:57:35;96698.22;;;4.55;100.00
48077;BME280;33854;57.708;12.008;2023-01-29T05:00:08;96705.00;;;4.56;100.00
48077;BME280;33854;57.708;12.008;2023-01-29T05:02:37;96698.22;;;4.55;100.00
48077;BME280;33854;57.708;12.008;2023-01-29T05:05:04;96708.03;;;4.62;100.00
48077;BME280;33854;57.708;12.008;2023-01-29T05:07:31;96711.28;;;4.64;100.00
48077;BME280;33854;57.708;12.008;2023-01-29T05:09:58;96731.13;;;4.63;100.00
48077;BME280;33854;57.708;12.008;2023-01-29T05:12:25;96733.59;;;4.65;100.00
48077;BME280;33854;57.708;12.008;2023-01-29T05:14:54;96723.28;;;4.65;100.00
48077;BME280;33854;57.708;12.008;2023-01-29T05:17:22;96739.56;;;4.65;100.00
48077;BME280;33854;57.708;12.008;2023-01-29T05:19:47;96730.31;;;4.63;100.00
48077;BME280;33854;57.708;12.008;2023-01-29T05:22:15;96742.84;;;4.67;100.00
48077;BME280;33854;57.708;12.008;2023-01-29T05:24:41;96751.53;;;4.66;100.00
48077;BME280;33854;57.708;12.008;2023-01-29T05:27:31;96757.53;;;4.67;100.00
48077;BME280;33854;57.708;12.008;2023-01-29T05:30:17;96762.25;;;4.62;100.00
48077;BME280;33854;57.708;12.008;2023-01-29T05:32:42;96777.34;;;4.66;100.00
48077;BME280;33854;57.708;12.008;2023-01-29T05:35:08;96789.44;;;4.66;100.00
48077;BME280;33854;57.708;12.008;2023-01-29T05:37:33;96796.25;;;4.67;100.00
48077;BME280;33854;57.708;12.008;2023-01-29T05:39:58;96807.25;;;4.69;100.00
48077;BME280;33854;57.708;12.008;2023-01-29T05:42:24;96810.25;;;4.64;100.00
48077;BME280;33854;57.708;12.008;2023-01-29T05:44:49;96827.94;;;4.69;100.00
48077;BME280;33854;57.708;12.008;2023-01-29T05:47:19;96820.75;;;4.72;100.00
48077;BME280;33854;57.708;12.008;2023-01-29T05:49:45;96829.44;;;4.71;100.00
48077;BME280;33854;57.708;12.008;2023-01-29T05:52:10;96800.91;;;4.73;100.00
48077;BME280;33854;57.708;12.008;2023-01-29T05:54:36;96806.75;;;4.75;100.00
48077;BME280;33854;57.708;12.008;2023-01-29T05:57:01;96804.44;;;4.72;100.00
48077;BME280;33854;57.708;12.008;2023-01-29T05:59:27;96808.78;;;4.71;100.00
48077;BME280;33854;57.708;12.008;2023-01-29T06:01:55;96810.28;;;4.74;100.00
48077;BME280;33854;57.708;12.008;2023-01-29T06:04:21;96800.75;;;4.74;100.00
48077;BME280;33854;57.708;12.008;2023-01-29T06:06:46;96803.22;;;4.76;100.00
48077;BME280;33854;57.708;12.008;2023-01-29T06:09:12;96798.91;;;4.76;100.00
48077;BME280;33854;57.708;12.008;2023-01-29T06:11:37;96793.72;;;4.76;100.00
48077;BME280;33854;57.708;12.008;2023-01-29T06:14:03;96800.25;;;4.80;100.00
48077;BME280;33854;57.708;12.008;2023-01-29T06:16:28;96804.84;;;4.77;100.00
48077;BME280;33854;57.708;12.008;2023-01-29T06:18:54;96804.59;;;4.80;100.00
48077;BME280;33854;57.708;12.008;2023-01-29T06:21:19;96821.75;;;4.81;100.00
48077;BME280;33854;57.708;12.008;2023-01-29T06:23:45;96821.88;;;4.79;100.00
48077;BME280;33854;57.708;12.008;2023-01-29T06:26:12;96837.22;;;4.81;100.00
48077;BME280;33854;57.708;12.008;2023-01-29T06:28:38;96840.75;;;4.80;100.00
48077;BME280;33854;57.708;12.008;2023-01-29T06:31:05;96853.41;;;4.83;100.00
48077;BME280;33854;57.708;12.008;2023-01-29T06:33:30;96869.88;;;4.82;100.00
48077;BME280;33854;57.708;12.008;2023-01-29T06:35:57;96901.66;;;4.82;100.00
48077;BME280;33854;57.708;12.008;2023-01-29T06:38:23;96906.72;;;4.84;100.00
48077;BME280;33854;57.708;12.008;2023-01-29T06:40:49;96925.63;;;4.84;100.00
48077;BME280;33854;57.708;12.008;2023-01-29T06:43:15;96927.13;;;4.87;100.00
48077;BME280;33854;57.708;12.008;2023-01-29T06:45:51;96941.00;;;4.86;100.00
48077;BME280;33854;57.708;12.008;2023-01-29T06:48:17;96956.38;;;4.87;100.00
48077;BME280;33854;57.708;12.008;2023-01-29T06:50:43;96947.56;;;4.90;100.00
48077;BME280;33854;57.708;12.008;2023-01-29T06:53:09;96920.03;;;4.79;100.00
48077;BME280;33854;57.708;12.008;2023-01-29T06:55:34;96963.31;;;4.87;100.00
48077;BME280;33854;57.708;12.008;2023-01-29T06:58:05;96977.88;;;4.88;100.00
48077;BME280;33854;57.708;12.008;2023-01-29T07:00:31;96991.97;;;4.84;100.00
48077;BME280;33854;57.708;12.008;2023-01-29T07:02:57;97005.00;;;4.82;100.00
48077;BME280;33854;57.708;12.008;2023-01-29T07:05:22;97016.16;;;4.83;100.00
48077;BME280;33854;57.708;12.008;2023-01-29T07:07:47;97013.72;;;4.81;100.00
48077;BME280;33854;57.708;12.008;2023-01-29T07:10:13;97024.72;;;4.83;100.00
48077;BME280;33854;57.708;12.008;2023-01-29T07:12:38;97039.09;;;4.76;100.00
48077;BME280;33854;57.708;12.008;2023-01-29T07:15:04;97049.06;;;4.81;100.00
48077;BME280;33854;57.708;12.008;2023-01-29T07:17:30;97061.03;;;4.82;100.00
48077;BME280;33854;57.708;12.008;2023-01-29T07:19:55;97076.53;;;4.82;100.00
48077;BME280;33854;57.708;12.008;2023-01-29T07:22:21;97075.56;;;4.83;100.00
48077;BME280;33854;57.708;12.008;2023-01-29T07:24:46;97076.53;;;4.82;100.00
48077;BME280;33854;57.708;12.008;2023-01-29T07:27:12;97072.16;;;4.82;100.00
48077;BME280;33854;57.708;12.008;2023-01-29T07:29:38;97078.88;;;4.85;100.00
48077;BME280;33854;57.708;12.008;2023-01-29T07:32:03;97083.22;;;4.84;100.00
48077;BME280;33854;57.708;12.008;2023-01-29T07:34:29;97111.63;;;4.84;100.00
48077;BME280;33854;57.708;12.008;2023-01-29T07:36:55;97088.97;;;4.88;100.00
48077;BME280;33854;57.708;12.008;2023-01-29T07:39:21;97094.38;;;4.85;100.00
48077;BME280;33854;57.708;12.008;2023-01-29T07:41:47;97115.84;;;4.85;100.00
48077;BME280;33854;57.708;12.008;2023-01-29T07:44:13;97128.75;;;4.85;100.00
48077;BME280;33854;57.708;12.008;2023-01-29T07:46:38;97139.09;;;4.85;100.00
48077;BME280;33854;57.708;12.008;2023-01-29T07:49:03;97158.72;;;4.88;100.00
48077;BME280;33854;57.708;12.008;2023-01-29T07:51:29;97178.56;;;4.87;100.00
48077;BME280;33854;57.708;12.008;2023-01-29T07:53:54;97207.91;;;4.86;100.00
48077;BME280;33854;57.708;12.008;2023-01-29T07:56:20;97231.06;;;4.88;100.00
48077;BME280;33854;57.708;12.008;2023-01-29T07:58:45;97246.56;;;4.88;100.00
48077;BME280;33854;57.708;12.008;2023-01-29T08:01:10;97262.31;;;4.85;100.00
48077;BME280;33854;57.708;12.008;2023-01-29T08:03:36;97270.50;;;4.90;100.00
48077;BME280;33854;57.708;12.008;2023-01-29T08:06:02;97316.06;;;4.91;100.00
48077;BME280;33854;57.708;12.008;2023-01-29T08:08:28;97335.19;;;4.88;100.00
48077;BME280;33854;57.708;12.008;2023-01-29T08:10:54;97372.34;;;4.87;100.00
48077;BME280;33854;57.708;12.008;2023-01-29T08:13:19;97383.13;;;4.81;100.00
48077;BME280;33854;57.708;12.008;2023-01-29T08:15:45;97413.91;;;4.84;100.00
48077;BME280;33854;57.708;12.008;2023-01-29T08:18:11;97440.44;;;4.86;100.00
48077;BME280;33854;57.708;12.008;2023-01-29T08:20:37;97482.81;;;4.84;100.00
48077;BME280;33854;57.708;12.008;2023-01-29T08:23:09;97509.59;;;4.83;100.00
48077;BME280;33854;57.708;12.008;2023-01-29T08:25:36;97569.22;;;4.80;100.00
48077;BME280;33854;57.708;12.008;2023-01-29T08:28:02;97580.53;;;4.79;100.00
48077;BME280;33854;57.708;12.008;2023-01-29T08:30:31;97633.34;;;4.75;100.00
48077;BME280;33854;57.708;12.008;2023-01-29T08:32:57;97661.03;;;4.73;100.00
48077;BME280;33854;57.708;12.008;2023-01-29T08:35:23;97683.47;;;4.72;100.00
48077;BME280;33854;57.708;12.008;2023-01-29T08:37:59;97681.72;;;4.73;100.00
48077;BME280;33854;57.708;12.008;2023-01-29T08:40:27;97692.34;;;4.68;100.00
48077;BME280;33854;57.708;12.008;2023-01-29T08:42:57;97711.25;;;4.69;100.00
48077;BME280;33854;57.708;12.008;2023-01-29T08:45:23;97729.34;;;4.69;100.00
48077;BME280;33854;57.708;12.008;2023-01-29T08:47:49;97749.19;;;4.68;100.00
48077;BME280;33854;57.708;12.008;2023-01-29T08:50:15;97768.28;;;4.66;100.00
48077;BME280;33854;57.708;12.008;2023-01-29T08:52:41;97781.00;;;4.69;100.00
48077;BME280;33854;57.708;12.008;2023-01-29T08:55:07;97797.53;;;4.66;100.00
48077;BME280;33854;57.708;12.008;2023-01-29T08:57:32;97798.38;;;4.67;100.00
48077;BME280;33854;57.708;12.008;2023-01-29T08:59:58;97813.25;;;4.63;100.00
48077;BME280;33854;57.708;12.008;2023-01-29T09:02:23;97812.31;;;4.64;100.00
48077;BME280;33854;57.708;12.008;2023-01-29T09:04:49;97825.13;;;4.66;100.00
48077;BME280;33854;57.708;12.008;2023-01-29T09:07:14;97810.78;;;4.62;100.00
48077;BME280;33854;57.708;12.008;2023-01-29T09:09:40;97810.56;;;4.65;100.00
48077;BME280;33854;57.708;12.008;2023-01-29T09:12:05;97834.75;;;4.64;100.00
48077;BME280;33854;57.708;12.008;2023-01-29T09:14:31;97804.16;;;4.70;100.00
48077;BME280;33854;57.708;12.008;2023-01-29T09:16:57;97798.06;;;4.58;100.00
48077;BME280;33854;57.708;12.008;2023-01-29T09:19:22;97802.28;;;4.72;100.00
48077;BME280;33854;57.708;12.008;2023-01-29T09:21:48;97785.66;;;4.76;100.00
48077;BME280;33854;57.708;12.008;2023-01-29T09:24:14;97805.16;;;4.80;100.00
48077;BME280;33854;57.708;12.008;2023-01-29T09:26:39;97775.75;;;4.70;100.00
48077;BME280;33854;57.708;12.008;2023-01-29T09:29:05;97780.66;;;4.86;100.00
48077;BME280;33854;57.708;12.008;2023-01-29T09:31:31;97739.88;;;4.78;100.00
48077;BME280;33854;57.708;12.008;2023-01-29T09:33:56;97734.38;;;4.83;100.00
48077;BME280;33854;57.708;12.008;2023-01-29T09:36:21;97722.97;;;4.85;100.00
48077;BME280;33854;57.708;12.008;2023-01-29T09:38:47;97730.03;;;4.83;100.00
48077;BME280;33854;57.708;12.008;2023-01-29T09:41:47;97687.34;;;4.90;100.00
48077;BME280;33854;57.708;12.008;2023-01-29T09:47:10;97596.28;;;4.87;100.00
48077;BME280;33854;57.708;12.008;2023-01-29T09:49:42;97577.50;;;4.85;100.00
48077;BME280;33854;57.708;12.008;2023-01-29T09:52:26;97527.66;;;4.83;100.00
48077;BME280;33854;57.708;12.008;2023-01-29T09:55:03;97493.25;;;4.82;100.00
48077;BME280;33854;57.708;12.008;2023-01-29T09:57:51;97443.84;;;4.87;100.00
48077;BME280;33854;57.708;12.008;2023-01-29T10:00:23;97409.41;;;4.75;100.00
48077;BME280;33854;57.708;12.008;2023-01-29T10:03:03;97399.22;;;4.85;100.00
48077;BME280;33854;57.708;12.008;2023-01-29T10:08:02;97364.69;;;4.86;100.00
48077;BME280;33854;57.708;12.008;2023-01-29T10:10:36;97352.94;;;4.93;100.00
48077;BME280;33854;57.708;12.008;2023-01-29T10:13:18;97315.81;;;4.94;100.00
48077;BME280;33854;57.708;12.008;2023-01-29T10:26:41;97281.53;;;4.81;100.00
48077;BME280;33854;57.708;12.008;2023-01-29T10:29:07;97284.50;;;4.76;100.00
48077;BME280;33854;57.708;12.008;2023-01-29T10:31:36;97312.78;;;4.78;100.00
48077;BME280;33854;57.708;12.008;2023-01-29T10:36:48;97317.13;;;4.77;100.00
48077;BME280;33854;57.708;12.008;2023-01-29T10:39:21;97342.13;;;4.77;100.00
48077;BME280;33854;57.708;12.008;2023-01-29T10:47:39;97424.78;;;4.66;100.00
48077;BME280;33854;57.708;12.008;2023-01-29T11:00:21;97550.28;;;4.68;100.00
48077;BME280;33854;57.708;12.008;2023-01-29T11:02:49;97547.13;;;4.65;100.00
48077;BME280;33854;57.708;12.008;2023-01-29T11:06:22;97541.94;;;4.65;100.00
48077;BME280;33854;57.708;12.008;2023-01-29T11:08:24;97542.88;;;4.64;100.00
48077;BME280;33854;57.708;12.008;2023-01-29T11:16:08;97555.78;;;4.64;100.00
48077;BME280;33854;57.708;12.008;2023-01-29T11:18:57;97541.81;;;4.66;100.00
48077;BME280;33854;57.708;12.008;2023-01-29T11:21:25;97532.94;;;4.70;100.00
48077;BME280;33854;57.708;12.008;2023-01-29T11:24:09;97530.66;;;4.66;100.00
48077;BME280;33854;57.708;12.008;2023-01-29T11:26:38;97532.19;;;4.68;100.00
48077;BME280;33854;57.708;12.008;2023-01-29T11:29:37;97532.31;;;4.67;100.00
48077;BME280;33854;57.708;12.008;2023-01-29T11:35:01;97533.16;;;4.67;100.00
48077;BME280;33854;57.708;12.008;2023-01-29T11:37:36;97525.41;;;4.67;100.00
48077;BME280;33854;57.708;12.008;2023-01-29T11:40:34;97501.72;;;4.73;100.00
48077;BME280;33854;57.708;12.008;2023-01-29T11:43:29;97472.25;;;4.76;100.00
48077;BME280;33854;57.708;12.008;2023-01-29T11:46:03;97432.06;;;4.72;100.00
48077;BME280;33854;57.708;12.008;2023-01-29T11:48:50;97418.44;;;4.70;100.00
48077;BME280;33854;57.708;12.008;2023-01-29T11:51:25;97388.50;;;4.67;100.00
48077;BME280;33854;57.708;12.008;2023-01-29T11:54:00;97357.75;;;4.64;100.00
48077;BME280;33854;57.708;12.008;2023-01-29T11:56:39;97310.91;;;4.69;100.00
48077;BME280;33854;57.708;12.008;2023-01-29T11:59:24;97254.19;;;4.67;100.00
48077;BME280;33854;57.708;12.008;2023-01-29T12:01:52;97216.63;;;4.63;100.00
48077;BME280;33854;57.708;12.008;2023-01-29T12:04:21;97177.78;;;4.65;100.00
48077;BME280;33854;57.708;12.008;2023-01-29T12:06:49;97147.03;;;4.62;100.00
48077;BME280;33854;57.708;12.008;2023-01-29T12:09:22;97096.22;;;4.51;100.00
48077;BME280;33854;57.708;12.008;2023-01-29T12:11:48;97083.41;;;4.60;100.00
48077;BME280;33854;57.708;12.008;2023-01-29T12:14:28;97092.09;;;4.59;100.00
48077;BME280;33854;57.708;12.008;2023-01-29T12:17:21;97090.22;;;4.62;100.00
48077;BME280;33854;57.708;12.008;2023-01-29T12:19:57;97100.56;;;4.62;100.00
48077;BME280;33854;57.708;12.008;2023-01-29T12:25:17;97111.59;;;4.52;100.00
48077;BME280;33854;57.708;12.008;2023-01-29T12:27:52;97140.94;;;4.40;100.00
48077;BME280;33854;57.708;12.008;2023-01-29T12:30:26;97151.28;;;4.40;100.00
48077;BME280;33854;57.708;12.008;2023-01-29T12:35:25;97230.63;;;4.38;100.00
48077;BME280;33854;57.708;12.008;2023-01-29T12:40:24;97289.38;;;4.35;100.00
48077;BME280;33854;57.708;12.008;2023-01-29T12:42:55;97318.16;;;4.41;100.00
48077;BME280;33854;57.708;12.008;2023-01-29T12:45:25;97328.13;;;4.46;100.00
48077;BME280;33854;57.708;12.008;2023-01-29T12:48:00;97334.13;;;4.46;100.00
48077;BME280;33854;57.708;12.008;2023-01-29T12:50:34;97341.03;;;4.46;100.00
48077;BME280;33854;57.708;12.008;2023-01-29T12:53:25;97329.88;;;4.45;100.00
48077;BME280;33854;57.708;12.008;2023-01-29T12:55:57;97340.94;;;4.47;100.00
48077;BME280;33854;57.708;12.008;2023-01-29T12:58:36;97333.75;;;4.40;100.00
48077;BME280;33854;57.708;12.008;2023-01-29T13:01:11;97341.25;;;4.32;100.00
48077;BME280;33854;57.708;12.008;2023-01-29T13:06:15;97350.03;;;4.29;100.00
48077;BME280;33854;57.708;12.008;2023-01-29T13:08:53;97350.53;;;4.34;100.00
48077;BME280;33854;57.708;12.008;2023-01-29T13:11:44;97351.34;;;4.35;100.00
48077;BME280;33854;57.708;12.008;2023-01-29T13:14:19;97343.59;;;4.35;100.00
48077;BME280;33854;57.708;12.008;2023-01-29T13:16:49;97361.69;;;4.35;100.00
48077;BME280;33854;57.708;12.008;2023-01-29T13:21:42;97340.19;;;4.34;100.00
48077;BME280;33854;57.708;12.008;2023-01-29T13:24:17;97338.56;;;4.33;100.00
48077;BME280;33854;57.708;12.008;2023-01-29T13:26:45;97330.09;;;4.31;100.00
48077;BME280;33854;57.708;12.008;2023-01-29T13:29:23;97345.59;;;4.31;100.00
48077;BME280;33854;57.708;12.008;2023-01-29T13:31:50;97318.91;;;4.20;100.00
48077;BME280;33854;57.708;12.008;2023-01-29T13:34:28;97351.09;;;4.27;100.00
48077;BME280;33854;57.708;12.008;2023-01-29T13:37:08;97344.63;;;4.21;100.00
48077;BME280;33854;57.708;12.008;2023-01-29T13:39:39;97330.78;;;4.22;100.00
48077;BME280;33854;57.708;12.008;2023-01-29T13:42:22;97312.94;;;4.19;100.00
48077;BME280;33854;57.708;12.008;2023-01-29T13:44:54;97318.81;;;4.21;100.00
48077;BME280;33854;57.708;12.008;2023-01-29T13:47:27;97305.78;;;4.23;100.00
48077;BME280;33854;57.708;12.008;2023-01-29T13:49:57;97293.59;;;4.25;100.00
48077;BME280;33854;57.708;12.008;2023-01-29T13:55:02;97279.16;;;4.22;100.00
48077;BME280;33854;57.708;12.008;2023-01-29T14:10:25;97216.75;;;4.17;100.00
48077;BME280;33854;57.708;12.008;2023-01-29T14:15:37;97194.72;;;4.13;100.00
48077;BME280;33854;57.708;12.008;2023-01-29T14:18:25;97172.88;;;4.06;100.00
48077;BME280;33854;57.708;12.008;2023-01-29T14:20:55;97163.47;;;4.05;100.00
48077;BME280;33854;57.708;12.008;2023-01-29T14:25:53;97131.00;;;4.02;100.00
48077;BME280;33854;57.708;12.008;2023-01-29T14:28:22;97103.44;;;4.03;100.00
48077;BME280;33854;57.708;12.008;2023-01-29T14:30:49;97082.22;;;3.99;100.00
48077;BME280;33854;57.708;12.008;2023-01-29T14:33:31;97072.72;;;4.00;100.00
48077;BME280;33854;57.708;12.008;2023-01-29T14:35:58;97057.47;;;3.97;100.00
48077;BME280;33854;57.708;12.008;2023-01-29T14:38:27;97050.69;;;3.96;100.00
48077;BME280;33854;57.708;12.008;2023-01-29T14:43:40;96987.97;;;3.95;100.00
48077;BME280;33854;57.708;12.008;2023-01-29T14:48:59;96925.47;;;3.92;100.00
48077;BME280;33854;57.708;12.008;2023-01-29T14:51:26;96907.66;;;3.89;100.00
48077;BME280;33854;57.708;12.008;2023-01-29T14:54:24;96867.31;;;3.88;100.00
48077;BME280;33854;57.708;12.008;2023-01-29T14:57:02;96840.59;;;3.89;100.00
48077;BME280;33854;57.708;12.008;2023-01-29T14:59:33;96815.88;;;3.86;100.00
48077;BME280;33854;57.708;12.008;2023-01-29T15:02:15;96798.63;;;3.87;100.00
48077;BME280;33854;57.708;12.008;2023-01-29T15:04:47;96790.09;;;3.86;100.00
48077;BME280;33854;57.708;12.008;2023-01-29T15:07:22;96769.31;;;3.88;100.00
48077;BME280;33854;57.708;12.008;2023-01-29T15:10:13;96734.03;;;3.88;100.00
48077;BME280;33854;57.708;12.008;2023-01-29T15:15:42;96634.34;;;3.78;100.00
48077;BME280;33854;57.708;12.008;2023-01-29T15:18:25;96615.13;;;3.91;100.00
48077;BME280;33854;57.708;12.008;2023-01-29T15:21:23;96601.16;;;3.94;100.00
48077;BME280;33854;57.708;12.008;2023-01-29T15:24:03;96557.31;;;3.94;100.00
48077;BME280;33854;57.708;12.008;2023-01-29T15:26:28;96210.63;;;3.87;100.00
48077;BME280;33854;57.708;12.008;2023-01-29T15:28:56;96155.94;;;3.93;100.00
48077;BME280;33854;57.708;12.008;2023-01-29T15:31:22;96124.44;;;3.89;100.00